Time;durP1;ratioP1;P1;durP2;ratioP2;P2;SDS_P1;SDS_P2;PMS_P1;PMS_P2;Temp;Humidity;BMP_temperature;BMP_pressure;BME280_temperature;BME280_humidity;BME280_pressure;Samples;Min_cycle;Max_cycle;Signal;HPM_P1;HPM_P2
2023/05/11 00:00:08;;;;;;;15.85;11.93;;;12.20;99.90;;;;;;5062081;28;20036;-78
2023/05/11 00:02:34;;;;;;;15.68;11.35;;;12.20;99.90;;;;;;5082398;28;20536;-78
2023/05/11 00:05:00;;;;;;;16.10;11.75;;;12.10;99.90;;;;;;5080151;28;20040;-78
2023/05/11 00:07:25;;;;;;;16.60;12.00;;;12.10;99.90;;;;;;5079223;28;20071;-78
2023/05/11 00:09:51;;;;;;;17.08;11.82;;;12.10;99.90;;;;;;5079102;28;20121;-78
2023/05/11 00:12:17;;;;;;;16.65;11.85;;;12.10;99.90;;;;;;5060023;28;20071;-78
2023/05/11 00:14:42;;;;;;;15.13;12.10;;;12.30;99.90;;;;;;5078405;28;20060;-78
2023/05/11 00:17:08;;;;;;;15.60;11.15;;;12.10;99.90;;;;;;5079437;28;20336;-78
2023/05/11 00:19:33;;;;;;;16.15;10.98;;;12.10;99.90;;;;;;5078731;28;20162;-78
2023/05/11 00:21:59;;;;;;;15.00;11.02;;;12.20;99.90;;;;;;5061344;28;20044;-78
2023/05/11 00:24:25;;;;;;;15.05;10.77;;;12.20;99.90;;;;;;5060378;28;20052;-78
2023/05/11 00:26:51;;;;;;;17.50;11.43;;;12.20;99.90;;;;;;5078167;28;20036;-78
2023/05/11 00:29:16;;;;;;;15.45;11.07;;;12.20;99.90;;;;;;5061679;28;20041;-78
2023/05/11 00:31:46;;;;;;;16.92;12.18;;;12.20;99.90;;;;;;5082759;28;20044;-78
2023/05/11 00:34:13;;;;;;;16.30;12.05;;;12.20;99.90;;;;;;5084856;28;20577;-78
2023/05/11 00:36:39;;;;;;;14.90;11.63;;;12.10;99.90;;;;;;5051288;28;20491;-78
2023/05/11 00:39:04;;;;;;;14.43;11.95;;;12.10;99.90;;;;;;5083768;28;20040;-78
2023/05/11 00:41:30;;;;;;;15.38;11.95;;;12.10;99.90;;;;;;5064802;28;20048;-78
2023/05/11 00:43:55;;;;;;;15.77;11.85;;;12.10;99.90;;;;;;5044477;28;20056;-78
2023/05/11 00:46:21;;;;;;;16.65;11.50;;;12.10;99.90;;;;;;5059553;28;20455;-78
2023/05/11 00:48:47;;;;;;;17.73;12.55;;;12.10;99.90;;;;;;5086642;28;20047;-78
2023/05/11 00:51:13;;;;;;;16.95;12.32;;;12.10;99.90;;;;;;5082701;28;20040;-78
2023/05/11 00:53:38;;;;;;;15.88;11.45;;;12.10;99.90;;;;;;5066891;28;20040;-78
2023/05/11 00:56:04;;;;;;;15.70;11.80;;;12.10;99.90;;;;;;5086690;28;20047;-78
2023/05/11 00:58:31;;;;;;;15.35;11.73;;;12.10;99.90;;;;;;5081869;28;20048;-78
2023/05/11 01:00:57;;;;;;;15.95;12.20;;;12.10;99.90;;;;;;5080522;28;20078;-78
2023/05/11 01:03:23;;;;;;;16.63;12.43;;;12.10;99.90;;;;;;5081495;28;20600;-78
2023/05/11 01:05:52;;;;;;;15.48;12.07;;;12.10;99.90;;;;;;5083930;28;20044;-78
2023/05/11 01:08:23;;;;;;;18.00;12.80;;;12.10;99.90;;;;;;5062958;28;20070;-78
2023/05/11 01:11:09;;;;;;;16.02;12.40;;;12.10;99.90;;;;;;5064050;28;20044;-78
2023/05/11 01:13:54;;;;;;;15.40;11.52;;;12.10;99.90;;;;;;5080560;28;20125;-78
2023/05/11 01:16:23;;;;;;;16.65;11.88;;;12.10;99.90;;;;;;5064737;28;21121;-78
2023/05/11 01:19:02;;;;;;;16.85;12.23;;;12.80;99.90;;;;;;5081089;28;20125;-78
2023/05/11 01:21:32;;;;;;;16.45;12.05;;;12.10;99.90;;;;;;5083804;28;20032;-78
2023/05/11 01:24:16;;;;;;;19.30;12.52;;;12.10;99.90;;;;;;5082025;28;20036;-78
2023/05/11 01:26:49;;;;;;;16.23;11.43;;;12.40;99.90;;;;;;5081152;28;20048;-78
2023/05/11 01:29:28;;;;;;;16.27;12.10;;;12.10;99.90;;;;;;5087688;28;20044;-78
2023/05/11 01:31:55;;;;;;;17.42;12.57;;;12.10;99.90;;;;;;5083382;28;20138;-78
2023/05/11 01:34:29;;;;;;;15.35;11.52;;;12.10;99.90;;;;;;5081971;28;20104;-78
2023/05/11 01:36:58;;;;;;;19.02;12.75;;;12.10;99.90;;;;;;5063915;28;20090;-78
2023/05/11 01:39:34;;;;;;;16.67;11.75;;;12.10;99.90;;;;;;5081216;28;20177;-78
2023/05/11 01:42:10;;;;;;;18.90;13.27;;;12.00;99.90;;;;;;5080783;28;20182;-78
2023/05/11 01:44:43;;;;;;;18.63;12.93;;;12.10;99.90;;;;;;5051814;28;20045;-78
2023/05/11 01:47:10;;;;;;;17.70;12.93;;;12.00;99.90;;;;;;5069622;28;20044;-79
2023/05/11 01:49:39;;;;;;;16.60;12.18;;;12.00;99.90;;;;;;5068896;28;20126;-79
2023/05/11 01:52:07;;;;;;;17.17;12.60;;;12.00;99.90;;;;;;5086120;28;20149;-78
2023/05/11 01:54:34;;;;;;;16.67;12.60;;;12.00;99.90;;;;;;5088276;28;20044;-78
2023/05/11 01:57:02;;;;;;;16.90;12.10;;;12.00;99.90;;;;;;5069832;28;20047;-78
2023/05/11 01:59:30;;;;;;;15.75;11.63;;;11.90;99.90;;;;;;5086026;28;20088;-78
2023/05/11 02:01:57;;;;;;;16.95;11.65;;;11.90;99.90;;;;;;5087002;28;20766;-78
2023/05/11 02:04:24;;;;;;;17.80;11.50;;;11.90;99.90;;;;;;5087982;28;20070;-78
2023/05/11 02:06:51;;;;;;;17.30;11.68;;;11.90;99.90;;;;;;5088107;28;20040;-78
2023/05/11 02:09:17;;;;;;;15.43;11.05;;;11.90;99.90;;;;;;5081060;28;20075;-78
2023/05/11 02:11:50;;;;;;;17.48;11.57;;;11.90;99.90;;;;;;5068593;28;20090;-78
2023/05/11 02:14:17;;;;;;;;;;;11.90;99.90;;;;;;5069830;28;20109;-78
2023/05/11 02:16:45;;;;;;;19.98;11.30;;;11.80;99.90;;;;;;5086916;28;20006;-78
2023/05/11 02:19:13;;;;;;;14.60;11.30;;;11.80;99.90;;;;;;5069649;28;20096;-78
2023/05/11 02:21:40;;;;;;;15.50;10.98;;;11.90;99.90;;;;;;5087432;28;20123;-78
2023/05/11 02:24:07;;;;;;;15.82;11.45;;;11.80;99.90;;;;;;5053563;28;20048;-78
2023/05/11 02:26:33;;;;;;;14.10;11.07;;;11.90;99.90;;;;;;5084152;28;20097;-78
2023/05/11 02:28:58;;;;;;;15.30;11.75;;;11.80;99.90;;;;;;5086730;28;20044;-78
2023/05/11 02:31:27;;;;;;;17.85;11.57;;;11.80;99.90;;;;;;5088912;28;20040;-78
2023/05/11 02:34:03;;;;;;;14.70;11.02;;;12.10;99.90;;;;;;5087344;28;20087;-78
2023/05/11 02:36:29;;;;;;;15.93;10.88;;;11.90;99.90;;;;;;5086137;28;20129;-78
2023/05/11 02:39:03;;;;;;;15.82;11.00;;;11.80;99.90;;;;;;5067608;28;20048;-78
2023/05/11 02:41:30;;;;;;;17.20;12.30;;;11.80;99.90;;;;;;5085897;28;20046;-78
2023/05/11 02:44:02;;;;;;;16.17;10.88;;;11.80;99.90;;;;;;5054485;28;20051;-78
2023/05/11 02:46:33;;;;;;;17.92;11.38;;;11.80;99.90;;;;;;5052689;28;20059;-78
2023/05/11 02:49:03;;;;;;;16.23;11.77;;;11.80;99.90;;;;;;5071144;28;20040;-78
2023/05/11 02:51:36;;;;;;;15.88;11.73;;;11.90;99.90;;;;;;5043276;28;20063;-78
2023/05/11 02:54:05;;;;;;;16.33;11.57;;;11.80;99.90;;;;;;5087299;28;20048;-78
2023/05/11 02:56:32;;;;;;;17.40;11.43;;;11.90;99.90;;;;;;5053435;28;20048;-78
2023/05/11 02:58:58;;;;;;;17.25;11.75;;;11.90;99.90;;;;;;5088443;28;20036;-78
2023/05/11 03:01:24;;;;;;;15.75;11.10;;;11.80;99.90;;;;;;5068440;28;20469;-78
2023/05/11 03:03:50;;;;;;;19.17;11.45;;;11.80;99.90;;;;;;5088591;28;20036;-78
2023/05/11 03:06:16;;;;;;;18.27;12.30;;;11.80;99.90;;;;;;5086934;28;20110;-78
2023/05/11 03:08:41;;;;;;;17.38;12.23;;;11.80;99.90;;;;;;5088647;28;20075;-78
2023/05/11 03:11:08;;;;;;;16.60;11.65;;;11.80;99.90;;;;;;5066421;28;20082;-78
2023/05/11 03:13:34;;;;;;;16.30;12.02;;;11.70;99.90;;;;;;5086950;28;20100;-78
2023/05/11 03:16:01;;;;;;;20.38;12.27;;;11.70;99.90;;;;;;5086422;28;20052;-78
2023/05/11 03:18:28;;;;;;;21.20;13.07;;;11.70;99.90;;;;;;5086997;28;20083;-78
2023/05/11 03:20:56;;;;;;;20.52;12.25;;;11.70;99.90;;;;;;5068291;28;20050;-78
2023/05/11 03:23:22;;;;;;;19.40;12.45;;;11.70;99.90;;;;;;5086800;28;20044;-78
2023/05/11 03:25:48;;;;;;;20.45;13.35;;;11.60;99.90;;;;;;5086380;28;20595;-78
2023/05/11 03:28:14;;;;;;;20.85;14.52;;;11.60;99.90;;;;;;5085377;28;20036;-78
2023/05/11 03:30:43;;;;;;;21.13;14.07;;;11.60;99.90;;;;;;5087047;28;20048;-78
2023/05/11 03:33:09;;;;;;;23.15;14.40;;;11.70;99.90;;;;;;5083222;28;20690;-78
2023/05/11 03:35:36;;;;;;;20.80;14.43;;;11.60;99.90;;;;;;5081602;28;20051;-78
2023/05/11 03:38:04;;;;;;;24.70;14.88;;;11.90;99.90;;;;;;5067960;28;20044;-78
2023/05/11 03:40:32;;;;;;;24.00;15.18;;;11.70;99.90;;;;;;5086617;28;20036;-78
2023/05/11 03:43:00;;;;;;;23.05;14.75;;;11.60;99.90;;;;;;5066059;28;20047;-78
2023/05/11 03:45:27;;;;;;;28.35;15.95;;;11.60;99.90;;;;;;5069122;28;20044;-78
2023/05/11 03:47:54;;;;;;;28.23;16.52;;;11.60;99.90;;;;;;5078981;28;20048;-78
2023/05/11 03:50:21;;;;;;;27.00;15.02;;;11.60;99.90;;;;;;5066094;28;20044;-78
2023/05/11 03:52:47;;;;;;;28.30;16.77;;;11.50;99.90;;;;;;5077946;28;20072;-80
2023/05/11 03:55:12;;;;;;;27.38;15.70;;;11.60;99.90;;;;;;5060110;28;20047;-78
2023/05/11 03:57:38;;;;;;;32.30;17.27;;;11.60;99.90;;;;;;5079150;28;20048;-77
2023/05/11 04:00:05;;;;;;;26.63;15.63;;;11.50;99.90;;;;;;5060969;28;20406;-77
2023/05/11 04:02:33;;;;;;;30.08;16.73;;;11.50;99.90;;;;;;5078931;28;20113;-77
2023/05/11 04:04:59;;;;;;;28.58;16.23;;;11.40;99.90;;;;;;5078260;28;20506;-77
2023/05/11 04:07:25;;;;;;;30.70;17.30;;;11.50;99.90;;;;;;5080485;28;20139;-77
2023/05/11 04:09:50;;;;;;;32.03;17.88;;;11.50;99.90;;;;;;5069368;28;20395;-77
2023/05/11 04:12:16;;;;;;;30.90;17.02;;;11.40;99.90;;;;;;5086091;28;20040;-77
2023/05/11 04:14:42;;;;;;;29.60;15.90;;;11.40;99.90;;;;;;5078648;28;20135;-77
2023/05/11 04:17:07;;;;;;;31.92;17.73;;;11.40;99.90;;;;;;5082686;28;20044;-77
2023/05/11 04:19:33;;;;;;;38.05;17.27;;;11.40;99.90;;;;;;5049918;28;20047;-77
2023/05/11 04:21:58;;;;;;;34.58;17.35;;;11.40;99.90;;;;;;5044892;28;20094;-77
2023/05/11 04:24:24;;;;;;;35.85;17.15;;;11.50;99.90;;;;;;5081451;28;20044;-77
2023/05/11 04:26:55;;;;;;;34.22;17.38;;;11.40;99.90;;;;;;5084032;28;20048;-77
2023/05/11 04:29:20;;;;;;;29.70;17.35;;;11.40;99.90;;;;;;5083513;28;20040;-77
2023/05/11 04:31:46;;;;;;;34.92;17.25;;;11.40;99.90;;;;;;5081194;28;20852;-77
2023/05/11 04:34:12;;;;;;;33.35;17.10;;;11.40;99.90;;;;;;5063711;28;20036;-77
2023/05/11 04:36:37;;;;;;;36.40;18.15;;;11.50;99.90;;;;;;5064742;28;20036;-77
2023/05/11 04:39:03;;;;;;;35.17;18.75;;;11.50;99.90;;;;;;5083615;28;20101;-77
2023/05/11 04:41:29;;;;;;;37.90;17.35;;;11.50;99.90;;;;;;5091576;28;20046;-77
2023/05/11 04:43:54;;;;;;;36.90;18.25;;;11.50;99.90;;;;;;5082594;28;20035;-77
2023/05/11 04:46:21;;;;;;;35.45;17.50;;;11.50;99.90;;;;;;5064489;28;20056;-77
2023/05/11 04:48:47;;;;;;;40.97;19.10;;;11.50;99.90;;;;;;5082082;28;20560;-79
2023/05/11 04:51:12;;;;;;;38.35;18.83;;;11.50;99.90;;;;;;5086534;28;20040;-78
2023/05/11 04:53:38;;;;;;;40.05;19.90;;;11.50;99.90;;;;;;5087203;28;20044;-78
2023/05/11 04:56:04;;;;;;;42.75;20.38;;;11.50;99.90;;;;;;5087823;28;20048;-79
2023/05/11 04:58:29;;;;;;;42.05;20.48;;;11.50;99.90;;;;;;5089962;28;20118;-79
2023/05/11 05:00:55;;;;;;;42.63;20.23;;;11.50;99.90;;;;;;5087256;28;20505;-79
2023/05/11 05:03:21;;;;;;;42.92;19.92;;;11.50;99.90;;;;;;5062449;28;20176;-79
2023/05/11 05:05:46;;;;;;;44.45;19.92;;;11.60;99.90;;;;;;5080068;28;20045;-79
2023/05/11 05:08:13;;;;;;;44.88;21.58;;;11.50;99.90;;;;;;5081704;28;20042;-77
2023/05/11 05:10:38;;;;;;;43.30;20.60;;;11.60;99.90;;;;;;5065013;28;20047;-77
2023/05/11 05:13:04;;;;;;;42.67;19.52;;;11.60;99.90;;;;;;5082894;28;20105;-77
2023/05/11 05:15:30;;;;;;;48.47;22.10;;;11.60;99.90;;;;;;5081450;28;20048;-77
2023/05/11 05:17:55;;;;;;;44.97;21.63;;;11.60;99.90;;;;;;5083561;28;20399;-77
2023/05/11 05:20:21;;;;;;;40.42;20.70;;;11.60;99.90;;;;;;5090382;28;20777;-77
2023/05/11 05:22:46;;;;;;;40.83;20.30;;;11.70;99.90;;;;;;5079453;28;20499;-78
2023/05/11 05:25:15;;;;;;;39.60;18.67;;;11.60;99.90;;;;;;5083355;28;20390;-79
2023/05/11 05:27:41;;;;;;;38.40;18.83;;;11.70;99.90;;;;;;5063341;28;20317;-79
2023/05/11 05:30:07;;;;;;;34.40;18.15;;;11.70;99.90;;;;;;5067346;28;20044;-79
2023/05/11 05:32:32;;;;;;;31.95;17.33;;;11.80;99.90;;;;;;5072360;28;20040;-79
2023/05/11 05:34:58;;;;;;;29.02;15.77;;;11.90;99.90;;;;;;5090261;28;20152;-79
2023/05/11 05:37:23;;;;;;;23.83;14.05;;;11.90;99.90;;;;;;5071042;28;20044;-79
2023/05/11 05:39:49;;;;;;;24.05;13.48;;;11.90;99.90;;;;;;5089001;28;20063;-79
2023/05/11 05:42:15;;;;;;;21.42;13.05;;;12.00;99.90;;;;;;5070166;28;20044;-79
2023/05/11 05:44:40;;;;;;;19.05;12.02;;;12.00;99.90;;;;;;5070002;28;20051;-79
2023/05/11 05:47:06;;;;;;;19.33;11.93;;;12.00;99.90;;;;;;5071457;28;20060;-79
2023/05/11 05:49:31;;;;;;;20.85;12.07;;;12.00;99.90;;;;;;5089978;28;20403;-80
2023/05/11 05:51:57;;;;;;;19.38;11.40;;;12.00;99.90;;;;;;5088978;28;20109;-79
2023/05/11 05:54:22;;;;;;;18.13;11.95;;;12.10;99.90;;;;;;5089179;28;20052;-79
2023/05/11 05:56:49;;;;;;;17.50;11.15;;;12.30;99.90;;;;;;5058854;28;20753;-80
2023/05/11 05:59:14;;;;;;;17.60;10.82;;;12.20;99.90;;;;;;5087645;28;20118;-78
2023/05/11 06:01:45;;;;;;;16.85;10.75;;;12.20;99.90;;;;;;5068773;28;20143;-79
2023/05/11 06:04:13;;;;;;;17.63;11.35;;;12.30;99.90;;;;;;5069199;28;20130;-79
2023/05/11 06:06:39;;;;;;;17.70;11.30;;;12.40;99.90;;;;;;5069739;28;20469;-78
2023/05/11 06:09:05;;;;;;;15.10;10.82;;;12.80;99.90;;;;;;5075732;28;21074;-79
2023/05/11 06:11:30;;;;;;;14.13;10.13;;;12.50;99.90;;;;;;5057147;28;20044;-79
2023/05/11 06:13:56;;;;;;;14.25;10.05;;;12.50;99.90;;;;;;5074367;28;20396;-79
2023/05/11 06:16:24;;;;;;;14.70;10.20;;;12.50;99.90;;;;;;5064914;28;20044;-78
2023/05/11 06:18:49;;;;;;;13.70;10.27;;;12.60;99.90;;;;;;5081170;28;20056;-78
2023/05/11 06:21:15;;;;;;;12.23;9.32;;;12.80;99.90;;;;;;5083415;28;20824;-78
2023/05/11 06:23:41;;;;;;;14.20;10.05;;;12.90;99.90;;;;;;5089124;28;20050;-78
2023/05/11 06:26:07;;;;;;;14.60;9.73;;;13.00;99.90;;;;;;5089391;28;20505;-78
2023/05/11 06:28:33;;;;;;;12.68;9.18;;;13.00;99.90;;;;;;5089810;28;20119;-79
2023/05/11 06:30:58;;;;;;;16.48;10.35;;;13.00;99.90;;;;;;5088774;28;20039;-78
2023/05/11 06:33:25;;;;;;;14.00;9.75;;;13.00;99.90;;;;;;5069326;28;20097;-78
2023/05/11 06:35:51;;;;;;;13.57;9.50;;;13.40;99.90;;;;;;5088454;28;20135;-78
2023/05/11 06:38:16;;;;;;;15.57;9.75;;;13.00;99.90;;;;;;5088782;28;20048;-78
2023/05/11 06:40:43;;;;;;;13.05;8.82;;;13.00;99.90;;;;;;5088976;28;20071;-78
2023/05/11 06:43:09;;;;;;;13.98;10.13;;;13.00;99.90;;;;;;5069553;28;20044;-78
2023/05/11 06:45:34;;;;;;;12.55;9.40;;;12.90;99.90;;;;;;5088564;28;20501;-78
2023/05/11 06:48:00;;;;;;;12.77;9.15;;;13.00;99.90;;;;;;5087687;28;20504;-78
2023/05/11 06:50:25;;;;;;;14.07;10.07;;;13.00;99.90;;;;;;5087574;28;20063;-77
2023/05/11 06:52:51;;;;;;;12.95;9.05;;;13.00;99.90;;;;;;5087040;28;20050;-78
2023/05/11 06:55:16;;;;;;;14.98;10.13;;;12.90;99.90;;;;;;5068384;28;20048;-78
2023/05/11 06:57:42;;;;;;;13.13;9.63;;;12.90;99.90;;;;;;5069453;28;20051;-78
2023/05/11 07:00:08;;;;;;;14.45;9.75;;;13.50;99.90;;;;;;5069913;28;20067;-79
2023/05/11 07:02:34;;;;;;;14.00;9.57;;;12.90;99.90;;;;;;5057998;28;20040;-80
2023/05/11 07:05:00;;;;;;;14.30;10.38;;;12.90;99.90;;;;;;5061908;28;20751;-80
2023/05/11 07:07:25;;;;;;;15.32;9.73;;;12.90;99.90;;;;;;5070909;28;20048;-78
2023/05/11 07:09:51;;;;;;;15.20;10.45;;;12.90;99.90;;;;;;5080660;28;20040;-78
2023/05/11 07:12:16;;;;;;;15.85;10.35;;;12.80;99.90;;;;;;5079962;28;20044;-78
2023/05/11 07:14:42;;;;;;;16.67;10.60;;;12.80;99.90;;;;;;5082449;28;20044;-78
2023/05/11 07:17:08;;;;;;;27.27;16.75;;;12.80;99.90;;;;;;5076579;28;20130;-78
2023/05/11 07:19:33;;;;;;;19.10;12.95;;;12.70;99.90;;;;;;5078714;28;20040;-78
2023/05/11 07:22:00;;;;;;;17.00;11.13;;;12.60;99.90;;;;;;5077905;28;20442;-79
2023/05/11 07:24:26;;;;;;;16.25;10.13;;;12.60;99.90;;;;;;5081875;28;20055;-79
2023/05/11 07:26:51;;;;;;;14.43;10.07;;;12.60;99.90;;;;;;5086751;28;20128;-79
2023/05/11 07:29:17;;;;;;;15.30;9.88;;;12.60;99.90;;;;;;5068561;28;20051;-79
2023/05/11 07:31:43;;;;;;;13.20;9.07;;;12.60;99.90;;;;;;5088252;28;20062;-79
2023/05/11 07:34:08;;;;;;;14.77;9.75;;;12.60;99.90;;;;;;5088250;28;20040;-79
2023/05/11 07:36:34;;;;;;;14.25;10.20;;;12.60;99.90;;;;;;5086923;28;20452;-80
2023/05/11 07:39:00;;;;;;;16.33;10.18;;;12.60;99.90;;;;;;5067432;28;20396;-80
2023/05/11 07:41:26;;;;;;;14.73;9.73;;;12.60;99.90;;;;;;5066232;28;20105;-80
2023/05/11 07:43:53;;;;;;;17.25;10.93;;;12.70;99.90;;;;;;5066968;28;20044;-80
2023/05/11 07:46:18;;;;;;;16.95;10.77;;;12.60;99.90;;;;;;5085821;28;20048;-80
2023/05/11 07:48:44;;;;;;;13.27;9.52;;;12.70;99.90;;;;;;5085839;28;20124;-80
2023/05/11 07:51:10;;;;;;;15.30;9.82;;;12.60;99.90;;;;;;5087026;28;20078;-80
2023/05/11 07:53:36;;;;;;;15.13;9.50;;;12.60;99.90;;;;;;5087402;28;20482;-80
2023/05/11 07:56:02;;;;;;;11.90;8.35;;;12.60;99.90;;;;;;5068938;28;20044;-80
2023/05/11 07:58:28;;;;;;;12.93;8.48;;;12.60;99.90;;;;;;5053680;28;20052;-80
2023/05/11 08:00:54;;;;;;;12.20;8.52;;;12.60;99.90;;;;;;5091226;28;20067;-81
2023/05/11 08:03:20;;;;;;;11.65;7.55;;;12.70;99.90;;;;;;5072675;28;20391;-81
2023/05/11 08:05:46;;;;;;;12.30;7.63;;;12.70;99.90;;;;;;5073416;28;20456;-81
2023/05/11 08:08:11;;;;;;;12.88;7.70;;;12.70;99.90;;;;;;5072433;28;20086;-81
2023/05/11 08:10:37;;;;;;;12.05;7.72;;;12.70;99.90;;;;;;5073512;28;20356;-81
2023/05/11 08:13:03;;;;;;;12.80;7.50;;;12.70;99.90;;;;;;5072887;28;20134;-81
2023/05/11 08:15:34;;;;;;;10.63;6.80;;;12.80;99.90;;;;;;5073174;28;20182;-81
2023/05/11 08:18:00;;;;;;;11.18;6.80;;;13.60;99.90;;;;;;5072539;28;20044;-80
2023/05/11 08:20:26;;;;;;;10.27;6.55;;;12.90;99.90;;;;;;5091465;28;20052;-80
2023/05/11 08:22:51;;;;;;;10.05;6.57;;;12.80;99.90;;;;;;5072109;28;20054;-81
2023/05/11 08:25:17;;;;;;;10.30;6.38;;;12.70;99.90;;;;;;5090989;28;20048;-81
2023/05/11 08:27:43;;;;;;;9.90;6.18;;;12.80;99.90;;;;;;5056102;28;20172;-80
2023/05/11 08:30:09;;;;;;;10.20;6.35;;;12.80;99.90;;;;;;5071053;28;20112;-81
2023/05/11 08:32:35;;;;;;;9.15;6.15;;;12.90;99.90;;;;;;5090160;28;20040;-80
2023/05/11 08:35:04;;;;;;;11.68;6.20;;;12.90;99.90;;;;;;5090876;28;20067;-80
2023/05/11 08:37:30;;;;;;;6.22;4.80;;;13.00;99.90;;;;;;5069791;28;20044;-81
2023/05/11 08:39:56;;;;;;;7.40;4.63;;;13.10;99.90;;;;;;5070249;28;20070;-82
2023/05/11 08:42:24;;;;;;;5.93;4.38;;;13.10;99.90;;;;;;5074730;28;20431;-82
2023/05/11 08:44:54;;;;;;;6.13;3.60;;;13.20;99.90;;;;;;5074414;28;20456;-82
2023/05/11 08:47:19;;;;;;;5.00;3.88;;;13.30;99.90;;;;;;5047073;28;20056;-83
2023/05/11 08:49:45;;;;;;;6.47;4.13;;;13.30;99.90;;;;;;5044430;28;20041;-81
2023/05/11 08:52:15;;;;;;;4.82;3.50;;;14.40;99.90;;;;;;5048263;28;20052;-82
2023/05/11 08:54:40;;;;;;;5.30;3.17;;;13.40;99.90;;;;;;5048271;28;20040;-81
2023/05/11 08:57:07;;;;;;;3.92;2.92;;;13.40;99.90;;;;;;5045502;28;20163;-81
2023/05/11 08:59:33;;;;;;;3.65;2.53;;;13.40;99.90;;;;;;5049013;28;20048;-80
2023/05/11 09:02:00;;;;;;;3.15;2.60;;;13.50;99.90;;;;;;5049658;28;20060;-81
2023/05/11 09:04:26;;;;;;;3.97;2.25;;;13.50;99.90;;;;;;5049199;28;20033;-80
2023/05/11 09:06:53;;;;;;;3.42;1.73;;;13.50;99.90;;;;;;5049372;28;20114;-80
2023/05/11 09:09:19;;;;;;;2.13;1.65;;;13.50;99.90;;;;;;5049716;28;20048;-81
2023/05/11 09:11:45;;;;;;;3.17;2.13;;;14.10;99.90;;;;;;5047381;28;20053;-81
2023/05/11 09:14:11;;;;;;;2.65;2.20;;;13.40;99.90;;;;;;5049426;28;20052;-81
2023/05/11 09:16:37;;;;;;;2.85;2.10;;;14.30;99.90;;;;;;5048447;28;20063;-81
2023/05/11 09:19:04;;;;;;;2.60;2.08;;;13.40;99.90;;;;;;5048807;28;20045;-81
2023/05/11 09:21:30;;;;;;;2.75;1.58;;;13.40;99.90;;;;;;5044875;28;20052;-81
2023/05/11 09:24:00;;;;;;;1.58;1.30;;;13.40;99.90;;;;;;5047833;28;20428;-81
2023/05/11 09:26:28;;;;;;;2.30;1.50;;;13.40;99.90;;;;;;5031427;28;20870;-81
2023/05/11 09:28:58;;;;;;;1.92;1.50;;;13.40;99.90;;;;;;5031863;28;20041;-80
2023/05/11 09:31:43;;;;;;;1.80;1.48;;;13.40;99.90;;;;;;5038548;28;20408;-81
2023/05/11 09:34:17;;;;;;;1.63;1.10;;;13.40;99.90;;;;;;5044732;28;20102;-80
2023/05/11 09:36:45;;;;;;;0.90;0.70;;;13.40;99.90;;;;;;5048463;28;20385;-81
2023/05/11 09:39:12;;;;;;;1.02;0.93;;;13.40;99.90;;;;;;5032123;28;20049;-82
2023/05/11 09:41:38;;;;;;;1.85;1.60;;;13.40;99.90;;;;;;5049075;28;20095;-82
2023/05/11 09:44:09;;;;;;;1.83;1.30;;;13.50;99.90;;;;;;5050239;28;20109;-82
2023/05/11 09:46:38;;;;;;;1.67;1.38;;;13.60;99.90;;;;;;5058502;28;20057;-81
2023/05/11 09:49:05;;;;;;;2.17;1.75;;;13.70;99.90;;;;;;5064451;28;20048;-82
2023/05/11 09:51:33;;;;;;;2.30;1.42;;;13.90;99.90;;;;;;5048579;28;20491;-81
2023/05/11 09:54:00;;;;;;;1.90;1.60;;;14.10;99.90;;;;;;5069210;28;20415;-80
2023/05/11 09:56:51;;;;;;;3.20;1.90;;;14.80;99.90;;;;;;5050669;28;20532;-81
2023/05/11 09:59:40;;;;;;;1.65;1.38;;;14.50;99.90;;;;;;5049468;28;20037;-81
2023/05/11 10:02:35;;;;;;;2.58;1.95;;;14.60;99.90;;;;;;5070479;28;20040;-81
2023/05/11 10:05:11;;;;;;;2.03;1.75;;;14.60;99.90;;;;;;5080365;28;20205;-81
2023/05/11 10:07:37;;;;;;;2.05;1.60;;;14.70;99.90;;;;;;5066104;28;20055;-79
2023/05/11 10:10:06;;;;;;;2.03;1.52;;;15.10;99.90;;;;;;5068102;28;20051;-79
2023/05/11 10:12:36;;;;;;;2.67;2.20;;;15.10;99.90;;;;;;5061819;28;20407;-80
2023/05/11 10:15:09;;;;;;;3.88;2.20;;;15.30;99.90;;;;;;5048278;28;20102;-80
2023/05/11 10:17:36;;;;;;;4.90;3.28;;;15.70;99.90;;;;;;5059960;28;20053;-80
2023/05/11 10:20:03;;;;;;;5.20;3.42;;;16.10;99.90;;;;;;5068468;28;20051;-80
2023/05/11 10:22:30;;;;;;;4.63;3.55;;;16.30;99.90;;;;;;5066297;28;20098;-81
2023/05/11 10:24:57;;;;;;;5.63;4.18;;;16.50;99.90;;;;;;5063356;28;20094;-82
2023/05/11 10:27:23;;;;;;;3.67;2.88;;;16.60;99.90;;;;;;5068673;28;20052;-82
2023/05/11 10:29:49;;;;;;;3.63;3.25;;;16.90;99.90;;;;;;5068343;28;20040;-82
2023/05/11 10:32:16;;;;;;;4.22;3.67;;;17.00;99.90;;;;;;5064126;28;20132;-81
2023/05/11 10:34:44;;;;;;;5.68;4.45;;;16.50;99.90;;;;;;5065835;28;20051;-82
2023/05/11 10:37:10;;;;;;;5.97;4.53;;;16.50;99.90;;;;;;5067178;28;20118;-82
2023/05/11 10:39:37;;;;;;;6.53;4.72;;;16.40;99.90;;;;;;5053441;28;20048;-85
2023/05/11 10:42:06;;;;;;;6.10;4.82;;;17.40;99.90;;;;;;5066172;28;20347;-86
2023/05/11 10:45:10;;;;;;;5.70;4.90;;;16.50;99.90;;;;;;5065628;28;20466;-84
2023/05/11 10:48:07;;;;;;;6.70;4.60;;;16.50;99.90;;;;;;5047151;28;20479;-85
2023/05/11 10:51:00;;;;;;;5.35;4.85;;;15.60;99.90;;;;;;5066355;28;20067;-84
2023/05/11 10:53:39;;;;;;;6.63;5.72;;;16.60;99.90;;;;;;5049941;28;20544;-85
2023/05/11 10:56:23;;;;;;;7.55;5.85;;;16.50;99.90;;;;;;5050648;28;20050;-84
2023/05/11 10:59:21;;;;;;;8.45;7.13;;;16.70;99.90;;;;;;5065915;28;20070;-84
2023/05/11 11:01:56;;;;;;;8.63;7.60;;;16.70;99.90;;;;;;5050471;28;20515;-84
2023/05/11 11:04:22;;;;;;;9.70;7.30;;;16.80;99.90;;;;;;5066193;28;20060;-85
2023/05/11 11:07:03;;;;;;;7.82;7.03;;;17.10;99.90;;;;;;5049604;28;20029;-84
2023/05/11 11:10:15;;;;;;;10.15;7.78;;;17.30;99.90;;;;;;5049780;28;20044;-84
2023/05/11 11:13:07;;;;;;;9.43;8.07;;;17.50;99.90;;;;;;5066005;28;20487;-85
2023/05/11 11:15:52;;;;;;;8.73;7.55;;;17.70;99.90;;;;;;5067730;28;20091;-85
2023/05/11 11:18:22;;;;;;;9.27;7.70;;;17.80;99.90;;;;;;5067228;28;20049;-90
2023/05/11 11:20:52;;;;;;;10.60;7.93;;;17.90;99.90;;;;;;5064098;28;20044;-86
2023/05/11 11:23:45;;;;;;;8.80;7.38;;;18.30;99.90;;;;;;5058831;28;20053;-85
2023/05/11 11:26:15;;;;;;;10.02;7.25;;;17.70;99.90;;;;;;5047982;28;20051;-85
2023/05/11 11:28:53;;;;;;;8.65;7.35;;;17.80;99.90;;;;;;5046872;28;20127;-86
2023/05/11 11:31:26;;;;;;;8.32;7.43;;;18.30;99.90;;;;;;5046226;28;20053;-86
2023/05/11 11:33:57;;;;;;;9.38;7.82;;;17.40;99.90;;;;;;5029987;28;20518;-85
2023/05/11 11:36:54;;;;;;;8.48;7.47;;;17.30;99.90;;;;;;5045999;28;20052;-85
2023/05/11 11:39:46;;;;;;;8.90;7.45;;;17.20;99.90;;;;;;5062284;28;20044;-85
2023/05/11 11:42:17;;;;;;;9.10;7.72;;;17.10;99.90;;;;;;5054789;28;20503;-85
2023/05/11 11:44:43;;;;;;;10.05;8.15;;;17.00;99.90;;;;;;5066459;28;20046;-85
2023/05/11 11:47:17;;;;;;;11.63;9.25;;;17.00;99.90;;;;;;5079218;28;20477;-84
2023/05/11 11:49:48;;;;;;;10.88;8.82;;;17.00;99.90;;;;;;5051937;28;20051;-85
2023/05/11 11:52:26;;;;;;;10.80;8.67;;;17.00;99.90;;;;;;5087603;28;20089;-86
2023/05/11 11:54:58;;;;;;;11.27;9.32;;;17.50;99.90;;;;;;5051914;28;20427;-85
2023/05/11 11:57:33;;;;;;;12.00;8.95;;;17.00;99.90;;;;;;5069044;28;20101;-85
2023/05/11 12:00:05;;;;;;;11.35;8.80;;;17.60;99.90;;;;;;5068926;28;20105;-85
2023/05/11 12:02:32;;;;;;;10.50;8.85;;;17.10;99.90;;;;;;5068919;28;20052;-84
2023/05/11 12:05:16;;;;;;;9.45;8.45;;;17.40;99.90;;;;;;5052915;28;20044;-85
2023/05/11 12:07:44;;;;;;;10.15;8.43;;;17.30;99.90;;;;;;5066468;28;20044;-84
2023/05/11 12:10:21;;;;;;;10.85;8.75;;;17.50;99.90;;;;;;5049205;28;20049;-84
2023/05/11 12:12:48;;;;;;;8.38;7.38;;;17.50;99.90;;;;;;5061198;28;20047;-85
2023/05/11 12:15:24;;;;;;;10.18;8.70;;;17.70;99.90;;;;;;5087484;28;20107;-85
2023/05/11 12:17:50;;;;;;;8.95;7.72;;;17.70;99.90;;;;;;5069881;28;20127;-84
2023/05/11 12:20:18;;;;;;;10.02;8.80;;;17.80;99.90;;;;;;5072167;28;20181;-84
2023/05/11 12:22:45;;;;;;;10.23;7.93;;;17.80;99.90;;;;;;5071589;28;20619;-85
2023/05/11 12:25:13;;;;;;;8.77;7.05;;;17.90;99.90;;;;;;5068012;28;20059;-86
2023/05/11 12:28:01;;;;;;;8.02;7.13;;;17.80;99.90;;;;;;5081481;28;20044;-86
2023/05/11 12:30:33;;;;;;;9.27;6.72;;;17.70;99.90;;;;;;5090499;28;20487;-85
2023/05/11 12:33:02;;;;;;;6.22;5.43;;;17.80;99.90;;;;;;5087910;28;20092;-85
2023/05/11 12:35:30;;;;;;;6.43;5.63;;;17.90;99.90;;;;;;5076293;28;20498;-85
2023/05/11 12:37:57;;;;;;;6.28;5.43;;;17.90;99.90;;;;;;5067776;28;20043;-85
2023/05/11 12:40:23;;;;;;;6.28;5.20;;;17.90;99.90;;;;;;5069838;28;20465;-85